createdAt,value
2022-10-18T00:00:09.866Z,5.40
2022-10-18T00:01:09.832Z,5.60
2022-10-18T00:02:09.867Z,5.70
2022-10-18T00:03:09.808Z,5.50
2022-10-18T00:04:09.797Z,5.70
2022-10-18T00:05:09.820Z,5.50
2022-10-18T00:06:09.787Z,5.50
2022-10-18T00:07:09.780Z,5.30
2022-10-18T00:08:09.795Z,5.50
2022-10-18T00:09:09.773Z,5.30
2022-10-18T00:10:09.823Z,5.40
2022-10-18T00:11:09.794Z,4.90
2022-10-18T00:12:09.756Z,5.40
2022-10-18T00:13:09.736Z,5.00
2022-10-18T00:14:09.731Z,5.10
2022-10-18T00:15:09.761Z,5.50
2022-10-18T00:16:09.721Z,5.40
2022-10-18T00:17:09.702Z,5.10
2022-10-18T00:18:09.716Z,5.60
2022-10-18T00:19:09.685Z,5.00
2022-10-18T00:20:09.719Z,5.30
2022-10-18T00:21:09.689Z,5.10
2022-10-18T00:22:09.684Z,5.00
2022-10-18T00:23:09.660Z,5.60
2022-10-18T00:24:09.651Z,4.90
2022-10-18T00:25:09.646Z,5.40
2022-10-18T00:26:09.661Z,5.30
2022-10-18T00:27:09.635Z,5.30
2022-10-18T00:28:09.617Z,5.10
2022-10-18T00:29:09.613Z,5.20
2022-10-18T00:30:09.605Z,5.40
2022-10-18T00:31:09.625Z,5.50
2022-10-18T00:32:09.586Z,5.90
2022-10-18T00:33:09.574Z,5.50
2022-10-18T00:34:09.562Z,5.50
2022-10-18T00:35:09.565Z,5.60
2022-10-18T00:36:09.580Z,5.30
2022-10-18T00:37:09.549Z,4.90
2022-10-18T00:38:09.537Z,5.00
2022-10-18T00:39:09.533Z,5.00
2022-10-18T00:40:09.525Z,4.70
2022-10-18T00:41:09.549Z,5.10
2022-10-18T00:42:09.508Z,4.70
2022-10-18T00:43:09.497Z,5.00
2022-10-18T00:44:09.496Z,5.70
2022-10-18T00:45:09.484Z,5.40
2022-10-18T00:46:09.497Z,5.40
2022-10-18T00:47:09.472Z,5.60
2022-10-18T00:48:09.462Z,5.30
2022-10-18T00:49:09.471Z,4.90
2022-10-18T00:50:09.443Z,5.20
2022-10-18T00:51:09.474Z,5.10
2022-10-18T00:52:09.431Z,5.00
2022-10-18T00:53:09.428Z,5.00
2022-10-18T00:54:09.415Z,5.30
2022-10-18T00:55:09.409Z,4.60
2022-10-18T00:56:09.423Z,5.10
2022-10-18T00:57:09.390Z,5.10
2022-10-18T00:58:09.389Z,5.30
2022-10-18T00:59:09.395Z,5.00
2022-10-18T01:00:09.394Z,4.90
2022-10-18T01:01:09.414Z,5.10
2022-10-18T01:02:09.409Z,4.80
2022-10-18T01:03:09.374Z,5.20
2022-10-18T01:04:09.339Z,5.10
2022-10-18T01:05:09.327Z,5.20
2022-10-18T01:06:09.357Z,5.10
2022-10-18T01:07:09.314Z,5.80
2022-10-18T01:08:09.287Z,5.00
2022-10-18T01:09:10.315Z,5.50
2022-10-18T01:10:09.300Z,5.40
2022-10-18T01:11:09.317Z,5.20
2022-10-18T01:12:09.271Z,5.70
2022-10-18T01:13:09.275Z,5.20
2022-10-18T01:14:09.259Z,5.30
2022-10-18T01:15:09.254Z,5.50
2022-10-18T01:16:09.278Z,5.40
2022-10-18T01:17:09.247Z,5.40
2022-10-18T01:18:10.253Z,5.70
2022-10-18T01:19:09.225Z,5.40
2022-10-18T01:20:09.240Z,4.80
2022-10-18T01:21:09.199Z,5.50
2022-10-18T01:22:09.231Z,5.50
2022-10-18T01:23:09.190Z,5.30
2022-10-18T01:24:09.174Z,5.40
2022-10-18T01:25:09.171Z,5.20
2022-10-18T01:26:09.160Z,5.30
2022-10-18T01:27:09.179Z,5.30
2022-10-18T01:28:09.158Z,4.90
2022-10-18T01:29:09.141Z,5.30
2022-10-18T01:30:09.133Z,5.10
2022-10-18T01:31:09.128Z,5.10
2022-10-18T01:32:09.147Z,4.90
2022-10-18T01:33:09.117Z,5.40
2022-10-18T01:34:09.098Z,4.90
2022-10-18T01:35:09.088Z,5.00
2022-10-18T01:36:09.119Z,4.70
2022-10-18T01:37:09.082Z,4.60
2022-10-18T01:38:09.066Z,4.70
2022-10-18T01:39:09.063Z,4.20
2022-10-18T01:40:09.063Z,4.40
2022-10-18T01:41:13.149Z,4.80
2022-10-18T01:42:11.037Z,4.30
2022-10-18T01:43:09.224Z,4.40
2022-10-18T01:44:09.026Z,4.40
2022-10-18T01:45:09.013Z,4.20
2022-10-18T01:46:09.090Z,4.30
2022-10-18T01:47:09.002Z,4.10
2022-10-18T01:48:08.993Z,4.30
2022-10-18T01:49:08.986Z,4.40
2022-10-18T01:50:08.981Z,4.20
2022-10-18T01:51:09.203Z,4.30
2022-10-18T01:53:08.956Z,4.50
2022-10-18T01:54:08.948Z,4.50
2022-10-18T01:55:08.946Z,4.40
2022-10-18T01:56:09.040Z,4.30
2022-10-18T01:57:08.931Z,4.50
2022-10-18T01:58:08.952Z,4.00
2022-10-18T01:59:08.912Z,4.70
2022-10-18T02:00:09.004Z,4.50
2022-10-18T02:01:08.951Z,4.40
2022-10-18T02:02:08.896Z,4.40
2022-10-18T02:03:08.882Z,4.50
2022-10-18T02:04:08.908Z,4.40
2022-10-18T02:05:08.867Z,4.40
2022-10-18T02:06:08.885Z,4.50
2022-10-18T02:07:08.846Z,4.30
2022-10-18T02:08:18.764Z,4.20
2022-10-18T02:09:10.831Z,4.50
2022-10-18T02:10:08.875Z,4.60
2022-10-18T02:11:08.844Z,4.80
2022-10-18T02:12:08.815Z,4.60
2022-10-18T02:13:08.794Z,4.50
2022-10-18T02:14:08.798Z,4.50
2022-10-18T02:15:08.783Z,4.30
2022-10-18T02:16:09.202Z,4.60
2022-10-18T02:17:08.775Z,4.40
2022-10-18T02:18:08.782Z,4.60
2022-10-18T02:19:08.752Z,4.60
2022-10-18T02:20:08.753Z,4.20
2022-10-18T02:21:08.766Z,4.70
2022-10-18T02:22:08.727Z,4.70
2022-10-18T02:23:08.728Z,4.60
2022-10-18T02:24:08.722Z,5.20
2022-10-18T02:25:08.704Z,4.50
2022-10-18T02:26:08.697Z,4.30
2022-10-18T02:27:08.717Z,4.80
2022-10-18T02:28:08.682Z,4.90
2022-10-18T02:29:08.678Z,4.50
2022-10-18T02:30:08.671Z,4.70
2022-10-18T02:31:08.651Z,4.40
2022-10-18T02:32:08.692Z,4.70
2022-10-18T02:33:08.648Z,4.90
2022-10-18T02:34:08.640Z,4.80
2022-10-18T02:35:08.650Z,4.60
2022-10-18T02:36:08.620Z,4.70
2022-10-18T02:37:08.628Z,5.20
2022-10-18T02:38:09.606Z,5.00
2022-10-18T02:39:08.618Z,4.80
2022-10-18T02:40:08.600Z,4.80
2022-10-18T02:41:08.589Z,4.80
2022-10-18T02:42:08.617Z,4.80
2022-10-18T02:43:08.597Z,4.80
2022-10-18T02:44:08.566Z,4.50
2022-10-18T02:45:08.566Z,5.00
2022-10-18T02:46:08.550Z,4.60
2022-10-18T02:47:08.573Z,5.00
2022-10-18T02:48:08.535Z,4.70
2022-10-18T02:49:08.538Z,4.70
2022-10-18T02:50:08.524Z,4.80
2022-10-18T02:51:08.515Z,5.30
2022-10-18T02:52:08.547Z,4.50
2022-10-18T02:53:08.491Z,4.80
2022-10-18T02:54:08.482Z,4.70
2022-10-18T02:55:08.491Z,5.00
2022-10-18T02:56:08.476Z,4.90
2022-10-18T02:57:08.485Z,4.50
2022-10-18T02:58:08.447Z,4.30
2022-10-18T02:59:08.445Z,4.50
2022-10-18T03:00:08.470Z,4.80
2022-10-18T03:01:09.501Z,4.90
2022-10-18T03:02:08.448Z,4.60
2022-10-18T03:03:08.410Z,4.80
2022-10-18T03:04:08.399Z,4.80
2022-10-18T03:05:08.395Z,4.80
2022-10-18T03:06:08.383Z,4.80
2022-10-18T03:07:08.414Z,4.90
2022-10-18T03:08:08.379Z,4.30
2022-10-18T03:09:08.373Z,4.40
2022-10-18T03:10:08.357Z,4.70
2022-10-18T03:11:08.351Z,4.80
2022-10-18T03:12:08.366Z,4.40
2022-10-18T03:13:08.328Z,4.80
2022-10-18T03:14:08.330Z,4.80
2022-10-18T03:15:08.317Z,5.00
2022-10-18T03:16:08.305Z,4.90
2022-10-18T03:17:08.326Z,4.70
2022-10-18T03:18:08.293Z,4.60
2022-10-18T03:19:08.283Z,4.60
2022-10-18T03:20:08.278Z,4.70
2022-10-18T03:21:08.268Z,4.80
2022-10-18T03:22:08.280Z,4.70
2022-10-18T03:23:08.260Z,4.60
2022-10-18T03:24:08.244Z,5.10
2022-10-18T03:25:08.237Z,4.80
2022-10-18T03:26:08.226Z,5.10
2022-10-18T03:27:08.256Z,4.80
2022-10-18T03:28:08.217Z,5.00
2022-10-18T03:29:08.232Z,4.90
2022-10-18T03:30:08.198Z,4.70
2022-10-18T03:31:08.194Z,4.60
2022-10-18T03:32:08.226Z,4.90
2022-10-18T03:33:08.175Z,4.80
2022-10-18T03:34:09.181Z,4.50
2022-10-18T03:35:08.188Z,4.70
2022-10-18T03:36:08.170Z,5.00
2022-10-18T03:37:08.183Z,4.90
2022-10-18T03:38:08.141Z,4.90
2022-10-18T03:39:08.135Z,4.80
2022-10-18T03:40:08.125Z,4.70
2022-10-18T03:41:08.113Z,4.70
2022-10-18T03:42:08.132Z,4.90
2022-10-18T03:43:08.097Z,4.80
2022-10-18T03:44:08.116Z,4.80
2022-10-18T03:45:08.096Z,4.60
2022-10-18T03:46:08.087Z,4.50
2022-10-18T03:47:08.094Z,4.80
2022-10-18T03:48:08.061Z,4.70
2022-10-18T03:49:08.055Z,4.90
2022-10-18T03:50:08.055Z,4.80
2022-10-18T03:51:08.037Z,4.60
2022-10-18T03:52:08.075Z,4.90
2022-10-18T03:53:08.015Z,5.10
2022-10-18T03:54:08.019Z,4.60
2022-10-18T03:55:08.012Z,4.40
2022-10-18T03:56:08.002Z,4.20
2022-10-18T03:57:08.017Z,4.40
2022-10-18T03:58:08.986Z,4.90
2022-10-18T03:59:07.978Z,4.80
2022-10-18T04:00:07.964Z,4.70
2022-10-18T04:01:07.967Z,5.00
2022-10-18T04:02:07.981Z,4.40
2022-10-18T04:03:07.944Z,4.80
2022-10-18T04:04:07.931Z,4.60
2022-10-18T04:05:07.931Z,4.40
2022-10-18T04:06:07.917Z,4.30
2022-10-18T04:07:07.940Z,3.90
2022-10-18T04:08:07.924Z,3.80
2022-10-18T04:09:10.119Z,4.00
2022-10-18T04:10:08.889Z,4.20
2022-10-18T04:11:07.894Z,4.20
2022-10-18T04:12:07.914Z,4.40
2022-10-18T04:13:07.869Z,4.60
2022-10-18T04:14:40.506Z,4.10
2022-10-18T04:15:07.868Z,3.80
2022-10-18T04:16:07.851Z,3.90
2022-10-18T04:17:07.880Z,3.40
2022-10-18T04:18:07.831Z,3.70
2022-10-18T04:19:07.837Z,4.10
2022-10-18T04:20:07.826Z,3.80
2022-10-18T04:21:07.807Z,4.20
2022-10-18T04:22:07.837Z,4.10
2022-10-18T04:23:07.792Z,4.30
2022-10-18T04:24:08.503Z,4.20
2022-10-18T04:25:07.778Z,4.40
2022-10-18T04:26:07.764Z,4.50
2022-10-18T04:27:07.791Z,4.40
2022-10-18T04:28:07.765Z,4.60
2022-10-18T04:29:07.831Z,4.60
2022-10-18T04:30:07.739Z,4.70
2022-10-18T04:31:07.729Z,4.40
2022-10-18T04:32:07.753Z,4.50
2022-10-18T04:33:07.728Z,4.70
2022-10-18T04:34:07.704Z,4.60
2022-10-18T04:35:07.702Z,4.90
2022-10-18T04:36:07.701Z,4.60
2022-10-18T04:37:07.705Z,4.70
2022-10-18T04:38:07.670Z,4.90
2022-10-18T04:39:07.664Z,4.70
2022-10-18T04:40:07.661Z,4.30
2022-10-18T04:41:07.650Z,4.20
2022-10-18T04:42:07.679Z,4.80
2022-10-18T04:43:07.634Z,4.20
2022-10-18T04:44:07.626Z,4.20
2022-10-18T04:45:07.629Z,4.50
2022-10-18T04:46:07.618Z,4.00
2022-10-18T04:47:07.633Z,4.60
2022-10-18T04:48:07.603Z,4.40
2022-10-18T04:49:07.589Z,4.30
2022-10-18T04:50:07.584Z,4.20
2022-10-18T04:51:07.583Z,5.50
2022-10-18T04:52:07.594Z,5.30
2022-10-18T04:53:07.563Z,5.80
2022-10-18T04:54:07.551Z,5.60
2022-10-18T04:55:07.545Z,5.50
2022-10-18T04:56:07.533Z,5.40
2022-10-18T04:57:07.546Z,5.20
2022-10-18T04:58:07.520Z,5.30
2022-10-18T04:59:07.507Z,5.40
2022-10-18T05:00:07.504Z,4.90
2022-10-18T05:01:07.509Z,5.30
2022-10-18T05:02:07.525Z,5.00
2022-10-18T05:03:07.483Z,5.10
2022-10-18T05:04:07.488Z,4.80
2022-10-18T05:05:10.305Z,4.70
2022-10-18T05:06:08.451Z,4.70
2022-10-18T05:07:07.480Z,4.30
2022-10-18T05:08:07.441Z,4.60
2022-10-18T05:09:07.441Z,4.40
2022-10-18T05:10:07.492Z,4.30
2022-10-18T05:11:07.487Z,5.20
2022-10-18T05:12:07.436Z,4.60
2022-10-18T05:13:07.404Z,4.70
2022-10-18T05:14:07.397Z,4.70
2022-10-18T05:15:08.930Z,4.30
2022-10-18T05:16:07.382Z,4.40
2022-10-18T05:17:07.411Z,4.40
2022-10-18T05:18:07.359Z,4.50
2022-10-18T05:19:07.369Z,4.70
2022-10-18T05:20:07.416Z,4.40
2022-10-18T05:21:07.347Z,4.10
2022-10-18T05:22:07.334Z,4.50
2022-10-18T05:23:07.366Z,4.60
2022-10-18T05:24:07.314Z,4.30
2022-10-18T05:25:08.310Z,4.30
2022-10-18T05:26:07.301Z,4.30
2022-10-18T05:27:07.304Z,3.60
2022-10-18T05:28:11.087Z,4.20
2022-10-18T05:29:08.418Z,3.70
2022-10-18T05:30:07.284Z,3.90
2022-10-18T05:31:07.259Z,4.00
2022-10-18T05:32:07.259Z,4.00
2022-10-18T05:33:07.277Z,3.80
2022-10-18T05:34:07.243Z,3.60
2022-10-18T05:35:07.240Z,3.70
2022-10-18T05:36:07.228Z,4.10
2022-10-18T05:37:07.219Z,4.00
2022-10-18T05:38:07.236Z,4.00
2022-10-18T05:39:07.202Z,4.30
2022-10-18T05:40:07.201Z,3.80
2022-10-18T05:41:07.181Z,3.80
2022-10-18T05:42:07.177Z,4.80
2022-10-18T05:43:07.197Z,4.20
2022-10-18T05:44:07.167Z,4.60
2022-10-18T05:45:07.155Z,4.50
2022-10-18T05:46:10.390Z,4.60
2022-10-18T05:47:09.128Z,4.00
2022-10-18T05:48:07.155Z,4.20
2022-10-18T05:49:07.120Z,4.10
2022-10-18T05:50:07.115Z,3.40
2022-10-18T05:51:07.110Z,3.90
2022-10-18T05:52:07.093Z,3.60
2022-10-18T05:53:12.289Z,3.70
2022-10-18T05:54:08.088Z,3.90
2022-10-18T05:55:07.072Z,3.70
2022-10-18T05:56:07.104Z,3.90
2022-10-18T05:57:07.090Z,4.30
2022-10-18T05:58:07.068Z,4.20
2022-10-18T05:59:07.043Z,4.20
2022-10-18T06:00:07.049Z,4.60
2022-10-18T06:01:07.033Z,4.10
2022-10-18T06:02:07.055Z,4.60
2022-10-18T06:03:07.187Z,4.70
2022-10-18T06:04:07.002Z,4.40
2022-10-18T06:05:06.996Z,5.00
2022-10-18T06:06:06.991Z,5.00
2022-10-18T06:07:06.977Z,5.40
2022-10-18T06:08:10.237Z,5.80
2022-10-18T06:09:06.966Z,5.60
2022-10-18T06:10:06.957Z,5.30
2022-10-18T06:11:06.951Z,5.40
2022-10-18T06:12:06.943Z,5.50
2022-10-18T06:13:06.957Z,5.50
2022-10-18T06:14:06.922Z,5.00
2022-10-18T06:15:06.918Z,4.80
2022-10-18T06:16:06.904Z,4.80
2022-10-18T06:17:06.894Z,4.60
2022-10-18T06:18:06.924Z,4.20
2022-10-18T06:19:06.878Z,4.10
2022-10-18T06:20:06.891Z,4.10
2022-10-18T06:21:06.867Z,4.10
2022-10-18T06:22:06.865Z,3.90
2022-10-18T06:23:06.877Z,3.90
2022-10-18T06:24:06.855Z,4.00
2022-10-18T06:25:06.844Z,3.90
2022-10-18T06:26:06.832Z,3.70
2022-10-18T06:27:06.850Z,3.70
2022-10-18T06:28:09.011Z,4.00
2022-10-18T06:29:06.876Z,3.60
2022-10-18T06:30:06.793Z,3.70
2022-10-18T06:31:06.784Z,3.80
2022-10-18T06:32:06.778Z,3.90
2022-10-18T06:33:06.799Z,3.70
2022-10-18T06:34:06.765Z,4.10
2022-10-18T06:35:06.763Z,3.70
2022-10-18T06:36:06.748Z,3.60
2022-10-18T06:37:06.744Z,4.10
2022-10-18T06:38:06.759Z,3.70
2022-10-18T06:39:06.728Z,4.10
2022-10-18T06:40:06.721Z,4.00
2022-10-18T06:41:06.716Z,4.10
2022-10-18T06:42:06.698Z,3.80
2022-10-18T06:43:20.059Z,4.20
2022-10-18T06:44:08.688Z,4.60
2022-10-18T06:45:06.674Z,4.80
2022-10-18T06:46:06.698Z,4.80
2022-10-18T06:47:06.658Z,4.90
2022-10-18T06:48:06.723Z,4.30
2022-10-18T06:49:06.655Z,4.90
2022-10-18T06:50:06.638Z,4.80
2022-10-18T06:51:06.668Z,4.70
2022-10-18T06:52:06.631Z,4.30
2022-10-18T06:53:06.644Z,4.70
2022-10-18T06:54:17.329Z,4.10
2022-10-18T06:55:09.248Z,4.00
2022-10-18T06:56:07.597Z,3.90
2022-10-18T06:57:06.595Z,4.00
2022-10-18T06:58:06.611Z,4.20
2022-10-18T06:59:06.576Z,4.10
2022-10-18T07:00:06.565Z,4.80
2022-10-18T07:01:06.555Z,6.10
2022-10-18T07:02:06.678Z,8.50
2022-10-18T07:03:06.575Z,7.80
2022-10-18T07:04:06.533Z,7.40
2022-10-18T07:05:06.540Z,6.40
2022-10-18T07:06:06.519Z,5.60
2022-10-18T07:07:06.510Z,5.70
2022-10-18T07:08:06.503Z,5.30
2022-10-18T07:09:06.534Z,5.50
2022-10-18T07:10:06.491Z,13.30
2022-10-18T07:11:06.487Z,8.50
2022-10-18T07:12:06.475Z,7.40
2022-10-18T07:13:30.742Z,6.50
2022-10-18T07:14:08.829Z,6.70
2022-10-18T07:15:09.386Z,5.40
2022-10-18T07:16:07.442Z,4.90
2022-10-18T07:17:06.455Z,4.90
2022-10-18T07:18:06.430Z,4.90
2022-10-18T07:19:06.456Z,4.70
2022-10-18T07:20:06.419Z,5.00
2022-10-18T07:21:06.401Z,5.10
2022-10-18T07:22:06.394Z,5.30
2022-10-18T07:23:06.388Z,5.10
2022-10-18T07:24:06.408Z,5.00
2022-10-18T07:25:06.407Z,5.20
2022-10-18T07:26:06.359Z,5.10
2022-10-18T07:27:06.354Z,4.80
2022-10-18T07:28:06.344Z,4.90
2022-10-18T07:29:06.438Z,5.10
2022-10-18T07:30:06.326Z,5.10
2022-10-18T07:31:06.404Z,5.30
2022-10-18T07:32:06.321Z,7.10
2022-10-18T07:33:06.306Z,6.00
2022-10-18T07:34:06.323Z,5.40
2022-10-18T07:35:06.351Z,4.30
2022-10-18T07:36:06.299Z,3.80
2022-10-18T07:37:06.278Z,3.90
2022-10-18T07:38:06.268Z,4.30
2022-10-18T07:39:06.286Z,3.90
2022-10-18T07:40:06.284Z,3.90
2022-10-18T07:41:06.249Z,4.00
2022-10-18T07:42:06.270Z,3.80
2022-10-18T07:43:09.152Z,4.00
2022-10-18T07:44:07.254Z,4.10
2022-10-18T07:45:06.216Z,4.20
2022-10-18T07:46:06.207Z,4.10
2022-10-18T07:47:06.208Z,4.00
2022-10-18T07:48:06.192Z,3.50
2022-10-18T07:49:06.204Z,3.80
2022-10-18T07:50:06.176Z,3.70
2022-10-18T07:51:06.173Z,4.10
2022-10-18T07:52:06.165Z,4.40
2022-10-18T07:53:06.153Z,5.20
2022-10-18T07:54:06.163Z,4.70
2022-10-18T07:55:06.142Z,5.00
2022-10-18T07:56:08.734Z,4.80
2022-10-18T07:57:06.131Z,4.70
2022-10-18T07:58:06.111Z,4.60
2022-10-18T07:59:06.129Z,3.60
2022-10-18T08:00:06.102Z,3.50
2022-10-18T08:01:06.262Z,3.10
2022-10-18T08:02:06.154Z,3.40
2022-10-18T08:03:06.073Z,4.00
2022-10-18T08:04:07.943Z,3.90
2022-10-18T08:05:07.095Z,3.80
2022-10-18T08:06:06.050Z,3.20
2022-10-18T08:07:06.048Z,3.00
2022-10-18T08:08:08.007Z,2.60
2022-10-18T08:09:06.060Z,3.30
2022-10-18T08:10:06.023Z,3.30
2022-10-18T08:11:06.032Z,4.00
2022-10-18T08:12:06.003Z,3.80
2022-10-18T08:13:05.995Z,4.50
2022-10-18T08:14:06.020Z,4.20
2022-10-18T08:15:05.989Z,4.60
2022-10-18T08:16:05.985Z,4.40
2022-10-18T08:17:06.005Z,4.10
2022-10-18T08:18:05.968Z,4.00
2022-10-18T08:19:05.983Z,4.00
2022-10-18T08:20:12.362Z,4.00
2022-10-18T08:21:06.937Z,3.70
2022-10-18T08:22:05.938Z,4.30
2022-10-18T08:23:05.931Z,4.10
2022-10-18T08:24:05.943Z,4.60
2022-10-18T08:25:05.907Z,4.20
2022-10-18T08:26:05.902Z,3.70
2022-10-18T08:27:05.898Z,4.20
2022-10-18T08:28:05.885Z,3.90
2022-10-18T08:30:07.873Z,3.60
2022-10-18T08:31:05.889Z,4.00
2022-10-18T08:32:05.861Z,4.30
2022-10-18T08:33:05.851Z,4.00
2022-10-18T08:34:05.871Z,3.70
2022-10-18T08:35:08.517Z,3.70
2022-10-18T08:36:05.867Z,3.30
2022-10-18T08:37:05.820Z,3.10
2022-10-18T08:38:05.813Z,3.10
2022-10-18T08:39:05.834Z,3.10
2022-10-18T08:40:05.793Z,3.10
2022-10-18T08:41:05.785Z,3.20
2022-10-18T08:42:05.791Z,3.30
2022-10-18T08:43:05.766Z,3.00
2022-10-18T08:44:07.299Z,3.10
2022-10-18T08:45:12.561Z,3.50
2022-10-18T08:46:06.745Z,3.30
2022-10-18T08:47:05.741Z,3.20
2022-10-18T08:48:05.729Z,3.30
2022-10-18T08:49:05.719Z,3.30
2022-10-18T08:50:05.745Z,3.90
2022-10-18T08:51:05.705Z,5.50
2022-10-18T08:52:05.697Z,4.60
2022-10-18T08:53:05.688Z,4.70
2022-10-18T08:54:05.684Z,4.20
2022-10-18T08:55:05.700Z,3.70
2022-10-18T08:56:05.665Z,3.70
2022-10-18T08:57:05.662Z,3.10
2022-10-18T08:58:05.667Z,3.00
2022-10-18T08:59:05.647Z,3.20
2022-10-18T09:00:05.662Z,2.80
2022-10-18T09:01:05.628Z,2.90
2022-10-18T09:02:05.632Z,3.00
2022-10-18T09:03:05.663Z,2.60
2022-10-18T09:04:05.609Z,2.40
2022-10-18T09:05:05.624Z,2.80
2022-10-18T09:06:05.590Z,2.10
2022-10-18T09:07:05.584Z,2.30
2022-10-18T09:08:05.578Z,2.20
2022-10-18T09:09:05.576Z,2.20
2022-10-18T09:10:05.598Z,2.30
2022-10-18T09:11:05.553Z,2.70
2022-10-18T09:12:05.557Z,2.30
2022-10-18T09:13:05.545Z,2.40
2022-10-18T09:14:05.533Z,2.20
2022-10-18T09:15:05.556Z,1.90
2022-10-18T09:16:05.527Z,2.10
2022-10-18T09:17:05.519Z,1.90
2022-10-18T09:18:05.514Z,2.10
2022-10-18T09:19:05.504Z,2.10
2022-10-18T09:20:05.517Z,1.70
2022-10-18T09:21:05.490Z,1.60
2022-10-18T09:22:07.453Z,1.90
2022-10-18T09:23:05.510Z,1.50
2022-10-18T09:24:05.661Z,1.70
2022-10-18T09:25:05.482Z,1.80
2022-10-18T09:26:05.443Z,1.80
2022-10-18T09:27:05.449Z,1.70
2022-10-18T09:28:05.432Z,2.00
2022-10-18T09:29:05.551Z,2.80
2022-10-18T09:30:05.447Z,2.40
2022-10-18T09:31:05.403Z,1.80
2022-10-18T09:32:05.395Z,1.90
2022-10-18T09:33:05.397Z,2.10
2022-10-18T09:34:05.391Z,2.20
2022-10-18T09:35:05.375Z,2.40
2022-10-18T09:36:05.395Z,2.60
2022-10-18T09:37:05.390Z,2.80
2022-10-18T09:38:05.353Z,2.40
2022-10-18T09:39:05.340Z,2.40
2022-10-18T09:40:05.332Z,2.00
2022-10-18T09:41:05.484Z,1.60
2022-10-18T09:42:05.319Z,1.80
2022-10-18T09:43:05.307Z,1.70
2022-10-18T09:44:05.306Z,1.90
2022-10-18T09:45:05.303Z,2.00
2022-10-18T09:46:05.325Z,2.00
2022-10-18T09:47:05.287Z,1.90
2022-10-18T09:48:05.272Z,2.10
2022-10-18T09:49:05.262Z,1.70
2022-10-18T09:50:05.251Z,2.10
2022-10-18T09:51:05.273Z,1.80
2022-10-18T09:52:05.240Z,1.90
2022-10-18T09:53:05.268Z,2.40
2022-10-18T09:54:05.247Z,2.40
2022-10-18T09:55:05.212Z,2.10
2022-10-18T09:56:05.477Z,2.00
2022-10-18T09:57:05.197Z,1.90
2022-10-18T09:58:05.199Z,2.10
2022-10-18T09:59:05.184Z,2.10
2022-10-18T10:00:05.215Z,2.00
2022-10-18T10:01:05.202Z,2.30
2022-10-18T10:02:05.202Z,2.40
2022-10-18T10:03:05.152Z,2.60
2022-10-18T10:04:05.147Z,2.50
2022-10-18T10:05:05.186Z,2.50
2022-10-18T10:06:05.164Z,2.40
2022-10-18T10:07:05.128Z,2.20
2022-10-18T10:08:05.114Z,2.40
2022-10-18T10:09:05.100Z,2.40
2022-10-18T10:10:05.094Z,2.70
2022-10-18T10:11:05.114Z,2.30
2022-10-18T10:12:05.097Z,2.80
2022-10-18T10:13:05.072Z,2.50
2022-10-18T10:14:37.626Z,2.70
2022-10-18T10:15:05.060Z,2.40
2022-10-18T10:16:05.070Z,2.20
2022-10-18T10:17:05.044Z,2.10
2022-10-18T10:18:05.025Z,2.60
2022-10-18T10:19:05.048Z,2.30
2022-10-18T10:20:05.022Z,2.00
2022-10-18T10:21:05.040Z,2.20
2022-10-18T10:22:04.998Z,2.50
2022-10-18T10:23:05.076Z,2.80
2022-10-18T10:24:04.977Z,2.60
2022-10-18T10:25:05.977Z,2.40
2022-10-18T10:26:04.993Z,2.20
2022-10-18T10:27:04.985Z,2.00
2022-10-18T10:28:04.981Z,1.70
2022-10-18T10:29:09.919Z,2.10
2022-10-18T10:30:07.122Z,1.90
2022-10-18T10:31:05.978Z,2.00
2022-10-18T10:32:04.934Z,2.10
2022-10-18T10:33:04.920Z,2.10
2022-10-18T10:34:04.918Z,1.80
2022-10-18T10:35:04.966Z,1.80
2022-10-18T10:36:04.932Z,1.60
2022-10-18T10:37:04.901Z,1.80
2022-10-18T10:38:04.892Z,2.00
2022-10-18T10:39:04.892Z,2.10
2022-10-18T10:40:17.754Z,2.40
2022-10-18T10:41:06.910Z,2.00
2022-10-18T10:42:06.861Z,2.10
2022-10-18T10:43:18.331Z,1.70
2022-10-18T10:44:06.834Z,1.80
2022-10-18T10:45:04.832Z,1.70
2022-10-18T10:46:04.851Z,1.50
2022-10-18T10:47:04.823Z,1.50
2022-10-18T10:48:04.810Z,1.60
2022-10-18T10:49:34.967Z,1.50
2022-10-18T10:50:06.815Z,1.50
2022-10-18T10:51:04.817Z,1.60
2022-10-18T10:52:26.381Z,1.50
2022-10-18T10:53:06.765Z,1.50
2022-10-18T10:54:04.773Z,1.50
2022-10-18T10:55:17.028Z,1.50
2022-10-18T10:56:06.778Z,1.40
2022-10-18T10:57:04.735Z,2.10
2022-10-18T10:58:04.833Z,2.70
2022-10-18T10:59:04.763Z,3.90
2022-10-18T11:00:04.718Z,1.80
2022-10-18T11:01:07.793Z,1.30
2022-10-18T11:02:05.695Z,1.20
2022-10-18T11:03:10.956Z,1.60
2022-10-18T11:04:06.719Z,1.40
2022-10-18T11:05:04.671Z,1.60
2022-10-18T11:06:04.686Z,1.40
2022-10-18T11:07:04.693Z,1.50
2022-10-18T11:08:04.694Z,1.50
2022-10-18T11:09:04.647Z,1.50
2022-10-18T11:10:04.736Z,1.40
2022-10-18T11:11:04.623Z,1.60
2022-10-18T11:12:04.669Z,1.70
2022-10-18T11:13:04.619Z,1.60
2022-10-18T11:14:24.882Z,1.50
2022-10-18T11:15:06.594Z,1.70
2022-10-18T11:16:04.589Z,1.70
2022-10-18T11:17:07.875Z,1.70
2022-10-18T11:18:05.574Z,1.60
2022-10-18T11:19:04.568Z,1.80
2022-10-18T11:20:04.556Z,1.70
2022-10-18T11:21:04.554Z,1.70
2022-10-18T11:22:04.606Z,1.60
2022-10-18T11:23:04.538Z,1.70
2022-10-18T11:24:04.528Z,1.70
2022-10-18T11:25:04.520Z,1.80
2022-10-18T11:26:04.520Z,1.70
2022-10-18T11:27:04.556Z,1.60
2022-10-18T11:28:04.502Z,1.60
2022-10-18T11:29:04.523Z,1.70
2022-10-18T11:30:04.485Z,1.60
2022-10-18T11:31:04.489Z,1.80
2022-10-18T11:32:04.468Z,1.70
2022-10-18T11:33:04.477Z,1.70
2022-10-18T11:34:09.160Z,1.60
2022-10-18T11:35:06.447Z,1.50
2022-10-18T11:36:04.429Z,1.90
2022-10-18T11:37:26.714Z,2.30
2022-10-18T11:38:06.431Z,1.80
2022-10-18T11:39:04.413Z,1.90
2022-10-18T11:40:04.398Z,1.40
2022-10-18T11:41:04.397Z,1.40
2022-10-18T11:42:04.427Z,1.50
2022-10-18T11:43:04.382Z,1.60
2022-10-18T11:44:04.367Z,1.30
2022-10-18T11:45:04.373Z,1.20
2022-10-18T11:46:04.355Z,1.40
2022-10-18T11:47:04.377Z,1.10
2022-10-18T11:48:04.341Z,1.40
2022-10-18T11:49:04.354Z,1.40
2022-10-18T11:50:04.327Z,1.30
2022-10-18T11:51:04.342Z,1.50
2022-10-18T11:52:08.307Z,1.50
2022-10-18T11:53:05.303Z,1.30
2022-10-18T11:54:04.292Z,1.70
2022-10-18T11:55:04.287Z,1.20
2022-10-18T11:56:04.277Z,1.00
2022-10-18T11:57:04.303Z,1.10
2022-10-18T11:58:04.261Z,1.00
2022-10-18T11:59:04.263Z,1.20
2022-10-18T12:00:04.244Z,1.00
2022-10-18T12:01:04.240Z,1.20
2022-10-18T12:02:04.241Z,1.30
2022-10-18T12:03:04.314Z,1.30
2022-10-18T12:04:04.216Z,1.10
2022-10-18T12:05:18.895Z,1.00
2022-10-18T12:06:06.207Z,1.10
2022-10-18T12:07:04.197Z,1.10
2022-10-18T12:08:04.218Z,1.10
2022-10-18T12:09:04.188Z,0.90
2022-10-18T12:10:04.179Z,1.00
2022-10-18T12:11:05.788Z,0.80
2022-10-18T12:12:05.165Z,0.90
2022-10-18T12:13:04.173Z,1.00
2022-10-18T12:14:04.143Z,0.90
2022-10-18T12:15:04.133Z,0.90
2022-10-18T12:16:04.126Z,1.00
2022-10-18T12:17:35.813Z,1.00
2022-10-18T12:18:06.149Z,1.00
2022-10-18T12:19:04.103Z,1.20
2022-10-18T12:20:04.094Z,1.10
2022-10-18T12:21:04.091Z,1.00
2022-10-18T12:22:04.071Z,1.00
2022-10-18T12:23:04.098Z,1.20
2022-10-18T12:24:04.055Z,1.20
2022-10-18T12:25:04.065Z,1.00
2022-10-18T12:26:04.041Z,1.10
2022-10-18T12:27:04.042Z,1.20
2022-10-18T12:28:04.058Z,1.40
2022-10-18T12:29:04.065Z,1.00
2022-10-18T12:30:04.023Z,1.20
2022-10-18T12:31:04.005Z,1.40
2022-10-18T12:32:04.002Z,1.40
2022-10-18T12:33:26.499Z,1.30
2022-10-18T12:34:05.987Z,1.30
2022-10-18T12:35:03.973Z,1.30
2022-10-18T12:36:03.968Z,1.30
2022-10-18T12:38:04.980Z,1.50
2022-10-18T12:39:03.941Z,1.60
2022-10-18T12:40:14.276Z,1.50
2022-10-18T12:41:05.939Z,1.70
2022-10-18T12:42:03.912Z,1.40
2022-10-18T12:43:03.939Z,1.60
2022-10-18T12:44:03.905Z,1.90
2022-10-18T12:45:03.896Z,1.80
2022-10-18T12:46:03.876Z,1.90
2022-10-18T12:47:03.889Z,1.40
2022-10-18T12:48:03.873Z,1.40
2022-10-18T12:49:03.904Z,1.40
2022-10-18T12:50:03.852Z,1.50
2022-10-18T12:51:03.844Z,1.40
2022-10-18T12:52:03.837Z,1.30
2022-10-18T12:53:03.838Z,1.40
2022-10-18T12:54:03.853Z,1.60
2022-10-18T12:55:03.809Z,1.50
2022-10-18T12:56:03.814Z,1.50
2022-10-18T12:57:03.798Z,1.40
2022-10-18T12:58:03.793Z,1.50
2022-10-18T12:59:03.812Z,1.50
2022-10-18T13:00:03.775Z,1.30
2022-10-18T13:01:03.832Z,1.60
2022-10-18T13:02:03.760Z,1.50
2022-10-18T13:03:03.759Z,1.60
2022-10-18T13:04:03.769Z,1.50
2022-10-18T13:05:03.735Z,1.40
2022-10-18T13:06:06.611Z,1.90
2022-10-18T13:07:04.724Z,1.90
2022-10-18T13:08:03.713Z,1.80
2022-10-18T13:09:03.732Z,1.80
2022-10-18T13:10:03.703Z,1.50
2022-10-18T13:11:03.689Z,1.80
2022-10-18T13:12:03.689Z,1.70
2022-10-18T13:13:13.193Z,2.40
2022-10-18T13:14:05.698Z,2.10
2022-10-18T13:15:24.152Z,2.30
2022-10-18T13:16:05.664Z,1.90
2022-10-18T13:17:03.652Z,1.60
2022-10-18T13:18:03.667Z,1.80
2022-10-18T13:19:03.634Z,1.90
2022-10-18T13:20:24.565Z,1.80
2022-10-18T13:21:05.623Z,2.20